createdAt,value
2023-05-04T00:00:17.120Z,49.35
2023-05-04T00:02:43.921Z,49.29
2023-05-04T00:05:12.591Z,49.45
2023-05-04T00:07:39.330Z,49.28
2023-05-04T00:10:06.809Z,49.21
2023-05-04T00:12:33.804Z,49.42
2023-05-04T00:15:00.588Z,49.32
2023-05-04T00:17:27.427Z,49.23
2023-05-04T00:19:54.474Z,49.20
2023-05-04T00:22:21.275Z,49.17
2023-05-04T00:24:48.664Z,49.18
2023-05-04T00:27:15.410Z,49.55
2023-05-04T00:29:42.095Z,49.22
2023-05-04T00:32:09.814Z,49.17
2023-05-04T00:34:38.126Z,48.81
2023-05-04T00:37:04.883Z,48.98
2023-05-04T00:39:31.601Z,49.16
2023-05-04T00:41:58.656Z,49.16
2023-05-04T00:44:25.300Z,49.02
2023-05-04T00:46:53.273Z,49.28
2023-05-04T00:49:21.832Z,48.89
2023-05-04T00:51:50.201Z,48.99
2023-05-04T00:54:20.759Z,49.11
2023-05-04T00:56:48.216Z,49.20
2023-05-04T00:59:14.949Z,48.90
2023-05-04T01:01:41.918Z,49.09
2023-05-04T01:04:09.102Z,48.76
2023-05-04T01:06:48.143Z,48.85
2023-05-04T01:09:17.538Z,48.84
2023-05-04T01:11:56.402Z,49.27
2023-05-04T01:14:23.252Z,49.06
2023-05-04T01:16:54.363Z,48.81
2023-05-04T01:19:21.193Z,49.11
2023-05-04T01:21:48.086Z,49.22
2023-05-04T01:24:15.852Z,49.29
2023-05-04T01:26:46.070Z,49.26
2023-05-04T01:29:12.766Z,49.22
2023-05-04T01:31:40.516Z,48.87
2023-05-04T01:34:09.269Z,49.12
2023-05-04T01:36:36.840Z,48.97
2023-05-04T01:39:03.976Z,49.07
2023-05-04T01:41:31.070Z,48.64
2023-05-04T01:43:58.317Z,49.06
2023-05-04T01:46:25.153Z,48.77
2023-05-04T01:48:51.899Z,49.06
2023-05-04T01:51:18.689Z,48.79
2023-05-04T01:53:45.386Z,48.75
2023-05-04T01:56:12.125Z,48.91
2023-05-04T01:58:38.867Z,48.86
2023-05-04T02:01:05.831Z,49.02
2023-05-04T02:03:32.685Z,49.01
2023-05-04T02:05:59.545Z,48.96
2023-05-04T02:08:26.849Z,48.96
2023-05-04T02:10:53.577Z,48.92
2023-05-04T02:13:20.301Z,48.92
2023-05-04T02:15:47.179Z,48.72
2023-05-04T02:18:13.925Z,49.07
2023-05-04T02:20:40.758Z,48.84
2023-05-04T02:23:07.464Z,48.86
2023-05-04T02:25:34.195Z,49.10
2023-05-04T02:28:01.005Z,49.21
2023-05-04T02:30:30.732Z,48.90
2023-05-04T02:32:57.487Z,49.02
2023-05-04T02:35:24.272Z,49.05
2023-05-04T02:37:52.480Z,49.10
2023-05-04T02:40:19.173Z,49.00
2023-05-04T02:42:46.018Z,49.07
2023-05-04T02:45:21.201Z,49.23
2023-05-04T02:47:50.968Z,48.96
2023-05-04T02:50:17.771Z,49.11
2023-05-04T02:52:44.631Z,48.99
2023-05-04T02:55:11.342Z,48.59
2023-05-04T02:57:38.105Z,48.90
2023-05-04T03:00:07.224Z,48.88
2023-05-04T03:02:34.205Z,48.97
2023-05-04T03:05:01.525Z,48.99
2023-05-04T03:07:28.516Z,48.90
2023-05-04T03:09:55.232Z,48.97
2023-05-04T03:12:21.944Z,48.71
2023-05-04T03:14:50.092Z,48.94
2023-05-04T03:17:17.093Z,48.99
2023-05-04T03:19:43.807Z,48.82
2023-05-04T03:22:10.673Z,49.00
2023-05-04T03:24:38.014Z,48.98
2023-05-04T03:27:04.747Z,48.89
2023-05-04T03:29:31.480Z,48.92
2023-05-04T03:31:58.312Z,49.00
2023-05-04T03:34:25.105Z,48.68
2023-05-04T03:36:51.859Z,48.71
2023-05-04T03:39:18.636Z,48.78
2023-05-04T03:41:45.371Z,48.85
2023-05-04T03:44:12.142Z,48.69
2023-05-04T03:46:38.980Z,48.59
2023-05-04T03:49:05.719Z,48.46
2023-05-04T03:51:32.396Z,48.19
2023-05-04T03:53:59.098Z,48.04
2023-05-04T03:56:25.974Z,48.01
2023-05-04T03:58:53.014Z,48.08
2023-05-04T04:01:19.705Z,47.61
2023-05-04T04:03:46.973Z,47.93
2023-05-04T04:06:13.858Z,47.48
2023-05-04T04:08:40.727Z,47.80
2023-05-04T04:11:07.430Z,47.50
2023-05-04T04:13:34.201Z,47.66
2023-05-04T04:16:01.224Z,47.38
2023-05-04T04:18:28.503Z,47.47
2023-05-04T04:20:55.240Z,47.33
2023-05-04T04:23:21.951Z,46.87
2023-05-04T04:25:48.793Z,46.71
2023-05-04T04:28:16.270Z,46.92
2023-05-04T04:30:43.240Z,46.84
2023-05-04T04:33:10.312Z,46.51
2023-05-04T04:35:37.353Z,46.72
2023-05-04T04:38:04.361Z,46.58
2023-05-04T04:40:31.181Z,45.96
2023-05-04T04:42:58.587Z,45.88
2023-05-04T04:45:25.884Z,45.87
2023-05-04T04:47:52.708Z,45.78
2023-05-04T04:50:23.799Z,45.36
2023-05-04T04:52:51.341Z,45.41
2023-05-04T04:55:18.211Z,45.42
2023-05-04T04:57:45.051Z,44.80
2023-05-04T05:00:14.546Z,44.40
2023-05-04T05:02:41.618Z,43.79
2023-05-04T05:05:09.816Z,44.85
2023-05-04T05:07:36.735Z,44.37
2023-05-04T05:10:03.994Z,44.25
2023-05-04T05:12:31.175Z,44.20
2023-05-04T05:14:57.948Z,44.38
2023-05-04T05:17:26.589Z,43.54
2023-05-04T05:19:53.945Z,43.33
2023-05-04T05:22:20.750Z,43.72
2023-05-04T05:24:47.489Z,43.40
2023-05-04T05:27:15.441Z,42.82
2023-05-04T05:29:43.121Z,43.13
2023-05-04T05:32:09.861Z,43.15
2023-05-04T05:34:39.002Z,42.82
2023-05-04T05:37:05.973Z,42.87
2023-05-04T05:39:34.371Z,42.00
2023-05-04T05:42:03.063Z,42.08
2023-05-04T05:44:30.173Z,42.12
2023-05-04T05:46:57.099Z,41.88
2023-05-04T05:49:23.842Z,41.90
2023-05-04T05:51:51.798Z,41.25
2023-05-04T05:54:19.611Z,41.17
2023-05-04T05:56:46.328Z,41.12
2023-05-04T05:59:15.947Z,40.91
2023-05-04T06:01:43.211Z,40.76
2023-05-04T06:04:10.099Z,40.17
2023-05-04T06:06:36.818Z,40.46
2023-05-04T06:09:03.769Z,40.13
2023-05-04T06:11:31.926Z,39.35
2023-05-04T06:13:58.718Z,40.17
2023-05-04T06:16:25.757Z,38.21
2023-05-04T06:18:52.489Z,35.90
2023-05-04T06:21:19.274Z,32.87
2023-05-04T06:23:47.826Z,31.35
2023-05-04T06:26:14.674Z,28.94
2023-05-04T06:28:41.921Z,26.61
2023-05-04T06:31:08.690Z,24.89
2023-05-04T06:33:35.416Z,23.08
2023-05-04T06:36:03.680Z,21.78
2023-05-04T06:38:30.399Z,20.56
2023-05-04T06:40:57.142Z,19.82
2023-05-04T06:43:23.896Z,18.55
2023-05-04T06:45:50.565Z,17.19
2023-05-04T06:48:18.458Z,17.14
2023-05-04T06:50:48.515Z,16.28
2023-05-04T06:53:15.244Z,15.96
2023-05-04T06:55:43.680Z,15.95
2023-05-04T06:58:10.855Z,15.79
2023-05-04T07:00:38.127Z,15.54
2023-05-04T07:03:04.943Z,15.18
2023-05-04T07:05:38.571Z,14.44
2023-05-04T07:08:05.493Z,14.03
2023-05-04T07:10:32.819Z,13.55
2023-05-04T07:12:59.564Z,12.84
2023-05-04T07:15:26.298Z,12.88
2023-05-04T07:17:53.108Z,12.88
2023-05-04T07:20:24.316Z,13.12
2023-05-04T07:22:58.734Z,13.27
2023-05-04T07:25:26.930Z,12.89
2023-05-04T07:27:54.757Z,13.20
2023-05-04T07:30:22.089Z,12.71
2023-05-04T07:32:49.562Z,12.22
2023-05-04T07:35:16.823Z,11.84
2023-05-04T07:37:43.595Z,11.89
2023-05-04T07:40:11.789Z,11.11
2023-05-04T07:42:40.126Z,11.16
2023-05-04T07:45:08.634Z,10.89
2023-05-04T07:47:36.213Z,11.26
2023-05-04T07:50:04.626Z,11.65
2023-05-04T07:52:34.282Z,11.10
2023-05-04T07:55:00.994Z,11.63
2023-05-04T07:57:28.417Z,10.69
2023-05-04T07:59:56.357Z,10.76
2023-05-04T08:02:23.544Z,10.71
2023-05-04T08:04:50.367Z,10.90
2023-05-04T08:07:19.412Z,10.52
2023-05-04T08:09:46.348Z,10.38
2023-05-04T08:12:13.090Z,10.49
2023-05-04T08:14:41.207Z,10.48
2023-05-04T08:17:07.927Z,10.41
2023-05-04T08:19:36.091Z,9.92
2023-05-04T08:22:04.316Z,10.29
2023-05-04T08:24:31.738Z,10.86
2023-05-04T08:27:07.337Z,10.44
2023-05-04T08:29:38.521Z,10.28
2023-05-04T08:32:06.769Z,10.00
2023-05-04T08:34:38.888Z,10.67
2023-05-04T08:37:05.956Z,10.42
2023-05-04T08:39:32.688Z,10.22
2023-05-04T08:42:00.771Z,10.20
2023-05-04T08:44:29.545Z,9.81
2023-05-04T08:46:57.229Z,10.19
2023-05-04T08:49:25.079Z,10.57
2023-05-04T08:51:52.181Z,10.51
2023-05-04T08:54:20.044Z,10.80
2023-05-04T08:56:48.374Z,11.09
2023-05-04T08:59:23.305Z,11.24
2023-05-04T09:01:53.691Z,11.44
2023-05-04T09:04:21.075Z,12.38
2023-05-04T09:06:48.057Z,13.25
2023-05-04T09:09:15.358Z,14.74
2023-05-04T09:11:42.206Z,15.34
2023-05-04T09:14:09.408Z,15.93
2023-05-04T09:16:37.449Z,16.45
2023-05-04T09:19:16.353Z,17.01
2023-05-04T09:21:44.187Z,17.34
2023-05-04T09:24:14.531Z,17.32
2023-05-04T09:26:41.236Z,17.98
2023-05-04T09:29:14.718Z,18.65
2023-05-04T09:31:47.358Z,20.03
2023-05-04T09:34:15.076Z,20.37
2023-05-04T09:36:42.384Z,20.73
2023-05-04T09:39:16.131Z,21.67
2023-05-04T09:41:43.567Z,22.02
2023-05-04T09:44:24.156Z,23.19
2023-05-04T09:46:55.659Z,22.60
2023-05-04T09:49:38.205Z,23.30
2023-05-04T09:52:07.173Z,23.21
2023-05-04T09:54:36.284Z,23.82
2023-05-04T09:57:13.264Z,24.40
2023-05-04T09:59:40.353Z,24.24
2023-05-04T10:02:18.585Z,24.36
2023-05-04T10:04:51.365Z,24.49
2023-05-04T10:07:19.314Z,24.70
2023-05-04T10:09:49.746Z,24.83
2023-05-04T10:12:17.101Z,25.23
2023-05-04T10:14:46.997Z,25.54
2023-05-04T10:17:39.032Z,26.23
2023-05-04T10:20:44.480Z,26.44
2023-05-04T10:23:45.433Z,26.18
2023-05-04T10:26:30.360Z,25.99
2023-05-04T10:29:12.232Z,26.44
2023-05-04T10:31:43.835Z,26.64
2023-05-04T10:34:11.317Z,26.39
2023-05-04T10:36:44.324Z,26.52
2023-05-04T10:39:23.393Z,26.62
2023-05-04T10:42:04.775Z,26.30
2023-05-04T10:44:37.640Z,26.25
2023-05-04T10:47:08.226Z,26.49
2023-05-04T10:49:36.104Z,26.38
2023-05-04T10:52:11.315Z,26.51
2023-05-04T10:54:39.760Z,26.33
2023-05-04T10:57:10.795Z,26.35
2023-05-04T10:59:38.043Z,26.36
2023-05-04T11:02:05.762Z,26.36
2023-05-04T11:04:34.144Z,26.51
2023-05-04T11:07:05.797Z,26.31
2023-05-04T11:09:42.066Z,26.31
2023-05-04T11:12:12.178Z,26.16
2023-05-04T11:14:43.675Z,26.28
2023-05-04T11:19:51.080Z,26.36
2023-05-04T11:22:18.878Z,26.34
2023-05-04T11:24:49.356Z,26.19
2023-05-04T11:27:25.653Z,26.39
2023-05-04T11:29:56.755Z,26.67
2023-05-04T11:32:33.140Z,26.72
2023-05-04T11:34:59.933Z,26.75
2023-05-04T11:37:28.368Z,26.75
2023-05-04T11:39:58.292Z,26.89
2023-05-04T11:42:26.284Z,26.70
2023-05-04T11:44:53.378Z,26.93
2023-05-04T11:47:20.743Z,26.78
2023-05-04T11:49:47.997Z,26.92
2023-05-04T11:52:14.732Z,26.84
2023-05-04T11:54:42.800Z,26.73
2023-05-04T11:57:09.652Z,26.68
2023-05-04T11:59:36.371Z,26.79
2023-05-04T12:02:03.614Z,26.85
2023-05-04T12:04:33.780Z,26.76
2023-05-04T12:07:07.368Z,26.77
2023-05-04T12:09:45.588Z,26.47
2023-05-04T12:12:12.457Z,26.27
2023-05-04T12:14:54.504Z,26.28
2023-05-04T12:17:21.865Z,26.38
2023-05-04T12:19:51.216Z,26.38
2023-05-04T12:22:25.699Z,26.25
2023-05-04T12:24:53.011Z,26.24
2023-05-04T12:27:20.044Z,26.42
2023-05-04T12:29:46.784Z,26.11
2023-05-04T12:32:13.976Z,26.46
2023-05-04T12:34:40.779Z,26.17
2023-05-04T12:37:07.943Z,26.23
2023-05-04T12:39:34.847Z,26.26
2023-05-04T12:42:01.662Z,26.08
2023-05-04T12:44:28.825Z,26.08
2023-05-04T12:46:55.903Z,26.17
2023-05-04T12:49:24.848Z,26.01
2023-05-04T12:51:52.098Z,26.04
2023-05-04T12:54:18.904Z,25.83
2023-05-04T12:56:46.050Z,26.22
2023-05-04T12:59:12.789Z,26.23
2023-05-04T13:01:42.164Z,26.38
2023-05-04T13:04:09.932Z,26.28
2023-05-04T13:06:36.773Z,25.88
2023-05-04T13:09:06.077Z,25.98
2023-05-04T13:11:33.071Z,26.33
2023-05-04T13:14:00.208Z,26.13
2023-05-04T13:16:31.742Z,26.42
2023-05-04T13:18:59.683Z,26.33
2023-05-04T13:21:26.400Z,26.60
2023-05-04T13:23:54.189Z,26.47
2023-05-04T13:26:21.769Z,26.49
2023-05-04T13:28:48.738Z,27.13
2023-05-04T13:31:15.591Z,26.59
2023-05-04T13:33:42.693Z,26.80
2023-05-04T13:36:09.767Z,27.20
2023-05-04T13:38:37.817Z,26.98
2023-05-04T13:41:04.863Z,27.14
2023-05-04T13:43:31.745Z,26.85
2023-05-04T13:46:03.032Z,27.06
2023-05-04T13:48:32.884Z,26.91
2023-05-04T13:50:59.825Z,26.65
2023-05-04T13:53:26.581Z,26.57
2023-05-04T13:55:53.369Z,26.65
2023-05-04T13:58:20.406Z,26.41
2023-05-04T14:00:49.528Z,26.48
2023-05-04T14:03:19.031Z,26.53
2023-05-04T14:05:47.086Z,26.82
2023-05-04T14:08:14.591Z,27.07
2023-05-04T14:10:41.392Z,27.18
2023-05-04T14:13:08.472Z,26.75
2023-05-04T14:15:35.304Z,26.69
2023-05-04T14:18:03.161Z,26.50
2023-05-04T14:20:30.194Z,26.35
2023-05-04T14:22:56.925Z,26.46
2023-05-04T14:25:29.620Z,26.38
2023-05-04T14:27:57.427Z,26.93
2023-05-04T14:30:24.263Z,26.47
2023-05-04T14:32:58.411Z,26.53
2023-05-04T14:35:25.921Z,26.76
2023-05-04T14:37:53.591Z,27.05
2023-05-04T14:40:20.422Z,26.50
2023-05-04T14:42:47.279Z,26.59
2023-05-04T14:45:17.393Z,26.58
2023-05-04T14:47:44.289Z,26.82
2023-05-04T14:50:11.686Z,26.70
2023-05-04T14:52:38.425Z,26.88
2023-05-04T14:55:09.814Z,26.86
2023-05-04T14:57:38.114Z,26.70
2023-05-04T15:00:08.768Z,26.50
2023-05-04T15:02:36.077Z,26.39
2023-05-04T15:05:03.220Z,26.76
2023-05-04T15:07:29.950Z,26.53
2023-05-04T15:09:56.941Z,26.32
2023-05-04T15:12:23.828Z,26.28
2023-05-04T15:14:53.036Z,26.48
2023-05-04T15:17:20.266Z,26.88
2023-05-04T15:19:48.453Z,26.60
2023-05-04T15:22:15.343Z,26.68
2023-05-04T15:24:43.380Z,26.97
2023-05-04T15:27:10.251Z,26.95
2023-05-04T15:29:37.055Z,26.93
2023-05-04T15:32:03.871Z,26.92
2023-05-04T15:34:31.201Z,26.59
2023-05-04T15:36:57.955Z,27.10
2023-05-04T15:39:24.716Z,27.32
2023-05-04T15:41:52.695Z,27.16
2023-05-04T15:44:24.386Z,26.98
2023-05-04T15:46:51.552Z,27.10
2023-05-04T15:49:21.967Z,27.09
2023-05-04T15:51:48.711Z,26.93
2023-05-04T15:54:15.807Z,26.73
2023-05-04T15:56:42.516Z,27.04
2023-05-04T15:59:09.534Z,27.27
2023-05-04T16:01:36.339Z,27.25
2023-05-04T16:04:03.351Z,27.43
2023-05-04T16:06:32.379Z,27.77
2023-05-04T16:08:59.616Z,27.61
2023-05-04T16:11:26.417Z,27.83
2023-05-04T16:13:55.024Z,28.07
2023-05-04T16:16:22.361Z,28.23
2023-05-04T16:18:49.055Z,28.15
2023-05-04T16:21:17.335Z,28.33
2023-05-04T16:23:46.828Z,28.23
2023-05-04T16:26:17.253Z,28.03
2023-05-04T16:28:47.449Z,28.15
2023-05-04T16:31:17.101Z,27.93
2023-05-04T16:33:47.490Z,27.71
2023-05-04T16:36:14.912Z,27.82
2023-05-04T16:38:42.037Z,28.05
2023-05-04T16:41:08.770Z,28.05
2023-05-04T16:43:35.572Z,28.67
2023-05-04T16:46:02.880Z,28.65
2023-05-04T16:48:29.681Z,28.82
2023-05-04T16:50:58.457Z,28.88
2023-05-04T16:53:25.276Z,28.66
2023-05-04T16:55:52.668Z,28.92
2023-05-04T16:58:19.522Z,28.68
2023-05-04T17:00:48.817Z,28.82
2023-05-04T17:03:15.703Z,29.03
2023-05-04T17:05:42.409Z,28.96
2023-05-04T17:08:09.218Z,29.21
2023-05-04T17:10:36.194Z,29.27
2023-05-04T17:13:03.012Z,29.20
2023-05-04T17:15:29.953Z,29.30
2023-05-04T17:17:56.678Z,29.43
2023-05-04T17:20:29.065Z,29.43
2023-05-04T17:22:58.773Z,29.61
2023-05-04T17:25:26.904Z,29.93
2023-05-04T17:27:57.917Z,29.81
2023-05-04T17:30:32.301Z,30.06
2023-05-04T17:32:59.199Z,30.41
2023-05-04T17:35:27.676Z,30.78
2023-05-04T17:37:59.020Z,31.12
2023-05-04T17:40:27.770Z,31.35
2023-05-04T17:42:55.005Z,31.42
2023-05-04T17:45:21.802Z,31.77
2023-05-04T17:47:51.285Z,31.95
2023-05-04T17:50:21.304Z,32.26
2023-05-04T17:52:52.571Z,32.46
2023-05-04T17:55:19.408Z,32.37
2023-05-04T17:57:46.061Z,32.82
2023-05-04T18:00:13.865Z,33.05
2023-05-04T18:02:42.965Z,33.08
2023-05-04T18:05:10.046Z,33.25
2023-05-04T18:07:36.853Z,33.31
2023-05-04T18:10:05.131Z,33.51
2023-05-04T18:12:32.099Z,33.72
2023-05-04T18:14:59.162Z,33.67
2023-05-04T18:17:27.483Z,33.58
2023-05-04T18:19:54.240Z,33.92
2023-05-04T18:22:21.055Z,34.17
2023-05-04T18:24:49.759Z,34.25
2023-05-04T18:27:16.997Z,34.59
2023-05-04T18:29:44.008Z,34.52
2023-05-04T18:32:11.000Z,34.64
2023-05-04T18:34:38.000Z,34.67
2023-05-04T18:37:05.207Z,34.90
2023-05-04T18:39:32.049Z,35.10
2023-05-04T18:42:01.132Z,35.71
2023-05-04T18:44:27.776Z,35.63
2023-05-04T18:46:54.527Z,36.03
2023-05-04T18:49:21.261Z,35.88
2023-05-04T18:51:47.960Z,36.22
2023-05-04T18:54:16.239Z,36.21
2023-05-04T18:56:43.660Z,36.27
2023-05-04T18:59:11.846Z,36.54
2023-05-04T19:01:39.146Z,36.79
2023-05-04T19:04:06.079Z,36.75
2023-05-04T19:06:33.751Z,37.04
2023-05-04T19:09:01.124Z,37.26
2023-05-04T19:11:30.209Z,37.30
2023-05-04T19:13:56.928Z,37.50
2023-05-04T19:16:23.747Z,37.42
2023-05-04T19:18:50.452Z,37.53
2023-05-04T19:21:17.184Z,37.74
2023-05-04T19:23:44.366Z,37.76
2023-05-04T19:26:11.219Z,37.74
2023-05-04T19:28:40.111Z,37.77
2023-05-04T19:31:07.363Z,37.90
2023-05-04T19:33:47.332Z,37.85
2023-05-04T19:36:15.983Z,37.89
2023-05-04T19:38:42.786Z,38.01
2023-05-04T19:41:12.136Z,38.06
2023-05-04T19:43:39.454Z,38.10
2023-05-04T19:46:08.078Z,38.22
2023-05-04T19:48:34.967Z,38.36
2023-05-04T19:51:02.249Z,38.37
2023-05-04T19:53:29.187Z,38.54
2023-05-04T19:55:56.605Z,38.63
2023-05-04T19:58:26.301Z,38.74
2023-05-04T20:00:54.104Z,38.65
2023-05-04T20:03:21.011Z,38.68
2023-05-04T20:05:51.091Z,38.63
2023-05-04T20:08:18.904Z,38.79
2023-05-04T20:10:45.712Z,38.59
2023-05-04T20:13:13.693Z,38.75
2023-05-04T20:15:40.936Z,38.81
2023-05-04T20:18:08.592Z,38.87
2023-05-04T20:20:35.901Z,39.07
2023-05-04T20:23:03.348Z,39.08
2023-05-04T20:25:30.874Z,39.09
2023-05-04T20:27:57.554Z,39.14
2023-05-04T20:30:28.157Z,39.25
2023-05-04T20:32:55.329Z,39.19
2023-05-04T20:35:22.080Z,39.28
2023-05-04T20:37:49.874Z,39.53
2023-05-04T20:40:16.989Z,39.33
2023-05-04T20:42:44.221Z,39.61
2023-05-04T20:45:12.006Z,39.47
2023-05-04T20:47:39.044Z,39.47
2023-05-04T20:50:08.092Z,39.55
2023-05-04T20:52:34.998Z,39.56
2023-05-04T20:55:02.033Z,39.61
2023-05-04T20:57:28.910Z,39.76
2023-05-04T20:59:56.457Z,39.65
2023-05-04T21:02:24.558Z,39.62
2023-05-04T21:04:51.517Z,39.72
2023-05-04T21:07:18.859Z,39.61
2023-05-04T21:09:47.017Z,39.98
2023-05-04T21:12:14.356Z,39.94
2023-05-04T21:14:43.198Z,40.15
2023-05-04T21:17:11.049Z,40.14
2023-05-04T21:19:42.515Z,40.14
2023-05-04T21:22:09.238Z,40.09
2023-05-04T21:24:36.401Z,40.25
2023-05-04T21:27:03.108Z,40.23
2023-05-04T21:29:29.777Z,40.22
2023-05-04T21:31:57.517Z,40.30
2023-05-04T21:34:24.987Z,40.28
2023-05-04T21:36:51.703Z,40.29
2023-05-04T21:39:18.453Z,40.33
2023-05-04T21:41:45.154Z,40.37
2023-05-04T21:44:12.046Z,40.31
2023-05-04T21:46:38.714Z,40.26
2023-05-04T21:49:05.560Z,40.24
2023-05-04T21:51:33.240Z,40.38
2023-05-04T21:53:59.964Z,40.19
2023-05-04T21:56:26.708Z,40.34
2023-05-04T21:58:53.449Z,40.39
2023-05-04T22:01:20.343Z,40.36
2023-05-04T22:03:47.142Z,40.29
2023-05-04T22:06:14.094Z,40.22
2023-05-04T22:08:40.879Z,40.46
2023-05-04T22:11:07.670Z,40.54
2023-05-04T22:13:34.466Z,40.60
2023-05-04T22:16:01.175Z,40.61
2023-05-04T22:18:27.945Z,40.62
2023-05-04T22:20:54.668Z,40.50
2023-05-04T22:23:21.506Z,40.59
2023-05-04T22:25:48.264Z,40.74
2023-05-04T22:28:15.046Z,40.71
2023-05-04T22:30:42.632Z,40.75
2023-05-04T22:33:09.305Z,41.05
2023-05-04T22:35:36.198Z,40.97
2023-05-04T22:38:02.980Z,41.31
2023-05-04T22:40:29.799Z,41.42
2023-05-04T22:42:56.643Z,41.54
2023-05-04T22:45:23.504Z,41.99
2023-05-04T22:47:50.220Z,42.05
2023-05-04T22:50:17.593Z,41.92
2023-05-04T22:52:44.344Z,42.34
2023-05-04T22:55:11.069Z,41.92
2023-05-04T22:57:37.891Z,42.08
2023-05-04T23:00:07.760Z,42.44
2023-05-04T23:02:35.112Z,42.24
2023-05-04T23:05:02.131Z,42.64
2023-05-04T23:07:29.206Z,42.59
2023-05-04T23:09:56.309Z,42.56
2023-05-04T23:12:23.385Z,42.58
2023-05-04T23:14:51.626Z,42.62
2023-05-04T23:17:19.357Z,42.93
2023-05-04T23:19:47.169Z,42.93
2023-05-04T23:22:14.723Z,43.03
2023-05-04T23:24:41.825Z,43.19
2023-05-04T23:27:09.161Z,43.14
2023-05-04T23:29:36.213Z,43.12
2023-05-04T23:32:03.639Z,43.36
2023-05-04T23:34:30.307Z,43.27
2023-05-04T23:36:57.220Z,43.44
2023-05-04T23:39:23.897Z,43.49
2023-05-04T23:41:50.641Z,43.54
2023-05-04T23:44:17.383Z,43.63
2023-05-04T23:46:44.108Z,43.57
2023-05-04T23:49:10.812Z,43.59
2023-05-04T23:51:37.649Z,43.47
2023-05-04T23:54:04.484Z,43.63
2023-05-04T23:56:32.062Z,43.48
2023-05-04T23:58:58.850Z,43.52
